Time;durP1;ratioP1;P1;durP2;ratioP2;P2;SDS_P1;SDS_P2;PMS_P1;PMS_P2;Temp;Humidity;BMP_temperature;BMP_pressure;BME280_temperature;BME280_humidity;BME280_pressure;Samples;Min_cycle;Max_cycle;Signal;HPM_P1;HPM_P2
2023/05/03 00:01:57;;;;;;;3.90;0.98;;;;;;;12.21;51.46;94945.75;5042094;28;20200;-77
2023/05/03 00:04:24;;;;;;;6.32;1.00;;;;;;;12.16;51.14;94935.09;5059968;28;20232;-77
2023/05/03 00:06:51;;;;;;;2.08;1.00;;;;;;;12.10;50.75;94929.84;5062868;28;20199;-77
2023/05/03 00:09:18;;;;;;;1.95;1.05;;;;;;;12.09;51.09;94941.03;5060244;28;20199;-75
2023/05/03 00:11:44;;;;;;;4.15;1.30;;;;;;;12.06;51.26;94942.50;5063190;28;20225;-77
2023/05/03 00:14:11;;;;;;;2.05;1.17;;;;;;;12.02;51.01;94952.44;5059853;28;20612;-76
2023/05/03 00:16:38;;;;;;;1.35;0.90;;;;;;;11.90;51.20;94957.75;5054537;28;20225;-77
2023/05/03 00:19:06;;;;;;;2.13;1.45;;;;;;;11.83;51.29;94960.19;5055585;28;20246;-76
2023/05/03 00:21:33;;;;;;;2.17;1.33;;;;;;;11.81;51.49;94956.22;5063253;28;20621;-76
2023/05/03 00:24:00;;;;;;;2.15;1.20;;;;;;;11.75;51.77;94969.16;5052446;28;20235;-75
2023/05/03 00:26:28;;;;;;;2.28;1.15;;;;;;;11.65;51.58;94958.63;5051944;28;20822;-76
2023/05/03 00:28:54;;;;;;;1.85;1.25;;;;;;;11.73;51.75;94965.97;5064633;28;20253;-75
2023/05/03 00:31:21;;;;;;;6.15;1.10;;;;;;;11.74;51.96;94956.69;5052561;28;20576;-76
2023/05/03 00:33:48;;;;;;;5.05;1.48;;;;;;;11.74;52.17;94967.56;5063951;28;20256;-76
2023/05/03 00:36:16;;;;;;;1.50;1.05;;;;;;;11.72;51.93;94977.94;5058090;28;20260;-76
2023/05/03 00:38:43;;;;;;;8.07;1.75;;;;;;;11.68;52.33;94960.72;5058508;28;20211;-77
2023/05/03 00:41:11;;;;;;;0.70;0.68;;;;;;;11.67;52.02;94961.81;5064896;28;20200;-76
2023/05/03 00:43:39;;;;;;;2.25;1.10;;;;;;;11.66;52.18;94971.09;5064079;28;20280;-76
2023/05/03 00:46:07;;;;;;;1.95;1.38;;;;;;;11.63;52.09;94967.09;5058160;28;20627;-74
2023/05/03 00:48:34;;;;;;;5.80;2.22;;;;;;;11.58;52.16;94958.38;5056673;28;20238;-75
2023/05/03 00:51:02;;;;;;;6.03;1.70;;;;;;;11.47;52.03;94947.06;5062487;28;20241;-76
2023/05/03 00:53:31;;;;;;;2.42;1.33;;;;;;;11.58;51.93;94963.78;5064720;28;20207;-76
2023/05/03 00:56:00;;;;;;;3.03;1.17;;;;;;;11.58;52.13;94961.06;5051189;28;20316;-76
2023/05/03 00:58:27;;;;;;;1.17;1.08;;;;;;;11.49;51.95;94961.09;5062531;28;20787;-78
2023/05/03 01:00:54;;;;;;;5.20;1.33;;;;;;;11.44;51.89;94957.78;5061089;28;20211;-76
2023/05/03 01:03:22;;;;;;;6.93;1.70;;;;;;;11.43;52.15;94965.13;5064169;28;20239;-76
2023/05/03 01:05:59;;;;;;;1.65;1.38;;;;;;;11.33;52.09;94958.13;5061679;28;20739;-75
2023/05/03 01:08:35;;;;;;;3.20;1.05;;;;;;;11.31;51.75;94948.72;5053436;28;20299;-77
2023/05/03 01:11:07;;;;;;;1.23;1.02;;;;;;;11.30;52.02;94953.34;5063817;28;20206;-77
2023/05/03 01:13:43;;;;;;;2.53;1.20;;;;;;;11.26;52.01;94948.88;5058181;28;20249;-76
2023/05/03 01:16:18;;;;;;;3.35;1.73;;;;;;;11.12;52.29;94938.25;5056432;28;20215;-76
2023/05/03 01:18:48;;;;;;;2.47;1.20;;;;;;;11.21;52.48;94940.91;5060314;28;20206;-76
2023/05/03 01:21:18;;;;;;;1.60;1.25;;;;;;;11.17;52.44;94931.84;5057362;28;20214;-76
2023/05/03 01:23:56;;;;;;;4.53;2.05;;;;;;;11.14;52.71;94930.59;5061315;28;20267;-75
2023/05/03 01:26:26;;;;;;;2.55;1.48;;;;;;;11.11;52.87;94942.06;5064715;28;20230;-76
2023/05/03 01:28:53;;;;;;;5.78;2.55;;;;;;;11.07;52.90;94938.41;5051233;28;20227;-75
2023/05/03 01:31:26;;;;;;;4.05;2.25;;;;;;;11.01;53.17;94940.50;5064059;28;20959;-76
2023/05/03 01:34:05;;;;;;;3.65;1.77;;;;;;;10.96;53.39;94931.72;5050281;28;20687;-76
2023/05/03 01:36:32;;;;;;;1.50;1.38;;;;;;;10.95;53.30;94946.41;5030643;28;20223;-75
2023/05/03 01:39:02;;;;;;;3.40;1.85;;;;;;;10.92;53.56;94938.94;5045392;28;20210;-76
2023/05/03 01:41:32;;;;;;;7.00;2.30;;;;;;;10.94;53.78;94923.91;5050520;28;20682;-77
2023/05/03 01:44:00;;;;;;;2.53;1.40;;;;;;;10.92;53.66;94925.38;5050809;28;20243;-79
2023/05/03 01:46:27;;;;;;;4.28;1.35;;;;;;;10.90;53.59;94924.91;5060070;28;20735;-76
2023/05/03 01:48:53;;;;;;;2.53;1.30;;;;;;;10.86;54.05;94915.81;5056864;28;20207;-76
2023/05/03 01:51:20;;;;;;;2.10;1.40;;;;;;;10.86;53.73;94921.25;5059428;28;20218;-76
2023/05/03 01:53:47;;;;;;;3.63;1.88;;;;;;;10.82;53.86;94925.69;5063741;28;20838;-76
2023/05/03 01:56:14;;;;;;;2.42;1.42;;;;;;;10.81;54.25;94907.84;5061402;28;20264;-77
2023/05/03 01:58:42;;;;;;;0.82;0.70;;;;;;;10.80;53.90;94906.25;5055741;28;20203;-75
2023/05/03 02:01:09;;;;;;;0.70;0.70;;;;;;;10.75;54.04;94898.31;5069405;28;20765;-75
2023/05/03 02:03:35;;;;;;;1.17;1.08;;;;;;;10.69;54.25;94884.91;5041735;28;20235;-75
2023/05/03 02:06:02;;;;;;;1.80;1.30;;;;;;;10.63;54.75;94886.22;5037817;28;20219;-77
2023/05/03 02:08:29;;;;;;;3.63;1.85;;;;;;;10.65;54.42;94888.63;5043194;28;20208;-75
2023/05/03 02:10:56;;;;;;;1.33;1.05;;;;;;;10.63;54.24;94886.22;5029801;28;20537;-75
2023/05/03 02:13:23;;;;;;;2.85;1.77;;;;;;;10.61;54.21;94868.69;5043017;28;20196;-75
2023/05/03 02:15:51;;;;;;;1.02;0.93;;;;;;;10.64;54.39;94876.97;5042253;28;20215;-76
2023/05/03 02:18:19;;;;;;;1.67;0.90;;;;;;;10.55;54.52;94867.25;5035598;28;20211;-75
2023/05/03 02:20:46;;;;;;;6.22;2.33;;;;;;;10.62;54.62;94868.38;5036339;28;20260;-77
2023/05/03 02:23:13;;;;;;;2.42;2.17;;;;;;;10.62;54.71;94865.66;5042580;28;20278;-76
2023/05/03 02:25:40;;;;;;;3.83;1.95;;;;;;;10.62;54.71;94867.56;5029480;28;20227;-75
2023/05/03 02:28:06;;;;;;;4.72;2.38;;;;;;;10.65;54.78;94867.75;5043073;28;20223;-79
2023/05/03 02:30:34;;;;;;;7.15;2.13;;;;;;;10.59;55.18;94860.09;5042293;28;20257;-76
2023/05/03 02:33:03;;;;;;;4.68;2.35;;;;;;;10.58;55.02;94856.59;5035797;28;20203;-78
2023/05/03 02:35:30;;;;;;;3.53;2.40;;;;;;;10.55;55.51;94857.22;5035595;28;20295;-77
2023/05/03 02:37:56;;;;;;;2.70;1.92;;;;;;;10.57;55.17;94859.59;5041324;28;20266;-76
2023/05/03 02:40:23;;;;;;;3.05;2.28;;;;;;;10.51;55.22;94872.53;5041088;28;20200;-77
2023/05/03 02:42:53;;;;;;;5.38;2.63;;;;;;;10.49;55.51;94869.34;5029800;28;20196;-76
2023/05/03 02:45:20;;;;;;;4.05;1.95;;;;;;;10.48;55.53;94878.59;5032949;28;20594;-78
2023/05/03 02:47:47;;;;;;;5.95;2.40;;;;;;;10.48;55.80;94881.31;5028425;28;20649;-76
2023/05/03 02:50:15;;;;;;;1.70;1.33;;;;;;;10.52;55.77;94879.53;5028203;28;20774;-76
2023/05/03 02:52:41;;;;;;;1.50;1.38;;;;;;;10.47;55.86;94865.38;5037512;28;20215;-76
2023/05/03 02:55:09;;;;;;;1.40;1.30;;;;;;;10.55;55.82;94876.19;5032791;28;20208;-75
2023/05/03 02:57:36;;;;;;;1.15;1.05;;;;;;;10.53;55.47;94864.06;5028515;28;20258;-76
2023/05/03 03:00:05;;;;;;;1.95;1.33;;;;;;;10.53;55.35;94858.66;5028575;28;20203;-76
2023/05/03 03:02:31;;;;;;;1.75;1.00;;;;;;;10.57;55.37;94875.84;5033946;28;20228;-76
2023/05/03 03:04:58;;;;;;;1.40;1.20;;;;;;;10.62;55.21;94871.09;5050115;28;20239;-76
2023/05/03 03:07:26;;;;;;;1.13;1.02;;;;;;;10.55;55.34;94878.88;5047917;28;20745;-76
2023/05/03 03:09:53;;;;;;;1.40;1.30;;;;;;;10.56;55.58;94861.53;5053837;28;20210;-76
2023/05/03 03:12:20;;;;;;;1.35;1.25;;;;;;;10.52;55.84;94874.09;5048808;28;20663;-76
2023/05/03 03:14:46;;;;;;;1.38;1.25;;;;;;;10.50;55.82;94872.84;5047840;28;20297;-75
2023/05/03 03:17:13;;;;;;;2.78;1.10;;;;;;;10.49;56.18;94880.19;5047581;28;20277;-76
2023/05/03 03:19:40;;;;;;;4.15;1.48;;;;;;;10.50;55.89;94892.63;5049357;28;20196;-78
2023/05/03 03:22:07;;;;;;;4.00;1.90;;;;;;;10.55;56.21;94883.50;5047269;28;20643;-79
2023/05/03 03:24:35;;;;;;;1.25;1.08;;;;;;;10.52;56.21;94879.53;5047909;28;20317;-76
2023/05/03 03:27:02;;;;;;;2.50;1.40;;;;;;;10.53;56.12;94883.03;5059392;28;20203;-76
2023/05/03 03:29:31;;;;;;;1.13;1.00;;;;;;;10.53;56.10;94889.25;5062488;28;20666;-75
2023/05/03 03:31:58;;;;;;;5.65;1.70;;;;;;;10.53;56.23;94897.38;5059908;28;20203;-75
2023/05/03 03:34:25;;;;;;;2.13;1.40;;;;;;;10.53;56.14;94910.91;5054120;28;20697;-76
2023/05/03 03:36:52;;;;;;;2.13;1.40;;;;;;;10.53;56.16;94913.63;5055506;28;20648;-76
2023/05/03 03:39:19;;;;;;;1.02;0.93;;;;;;;10.54;55.87;94914.41;5060857;28;20291;-76
2023/05/03 03:41:47;;;;;;;1.15;0.93;;;;;;;10.63;55.28;94920.66;5047767;28;20578;-76
2023/05/03 03:44:14;;;;;;;1.92;1.27;;;;;;;10.60;55.83;94913.94;5067169;28;20296;-78
2023/05/03 03:46:43;;;;;;;2.90;1.40;;;;;;;10.62;55.48;94905.50;5054211;28;20207;-78
2023/05/03 03:49:10;;;;;;;2.15;1.20;;;;;;;10.57;55.60;94914.59;5042510;28;20196;-78
2023/05/03 03:51:37;;;;;;;4.75;1.65;;;;;;;10.56;55.67;94929.25;5052406;28;20658;-75
2023/05/03 03:54:04;;;;;;;2.20;1.23;;;;;;;10.56;55.66;94926.53;5039979;28;20282;-75
2023/05/03 03:56:31;;;;;;;3.22;1.25;;;;;;;10.57;55.67;94930.84;5047215;28;20279;-78
2023/05/03 03:58:59;;;;;;;2.55;1.00;;;;;;;10.54;55.74;94926.06;5051011;28;20265;-77
2023/05/03 04:01:26;;;;;;;2.33;1.30;;;;;;;10.56;55.93;94934.66;5048176;28;20199;-77
2023/05/03 04:03:53;;;;;;;1.10;0.90;;;;;;;10.56;55.72;94940.06;5059488;28;20255;-77
2023/05/03 04:06:20;;;;;;;1.88;1.63;;;;;;;10.61;55.90;94936.41;5060733;28;20211;-77
2023/05/03 04:08:47;;;;;;;2.45;1.20;;;;;;;10.59;55.84;94939.44;5054939;28;20203;-77
2023/05/03 04:11:14;;;;;;;3.67;1.30;;;;;;;10.64;56.01;94942.00;5065763;28;20203;-77
2023/05/03 04:13:42;;;;;;;1.80;1.20;;;;;;;10.65;55.94;94943.59;5055723;28;20203;-76
2023/05/03 04:16:10;;;;;;;1.90;1.20;;;;;;;10.69;55.81;94944.53;5054043;28;20204;-77
2023/05/03 04:18:36;;;;;;;1.95;1.45;;;;;;;10.68;55.74;94969.22;5058650;28;20219;-77
2023/05/03 04:21:03;;;;;;;6.85;2.25;;;;;;;10.70;55.42;94961.59;5060604;28;20202;-80
2023/05/03 04:23:31;;;;;;;3.35;1.23;;;;;;;10.68;55.65;94964.59;5055983;28;20210;-77
2023/05/03 04:25:57;;;;;;;2.72;1.77;;;;;;;10.71;55.94;94967.78;5053764;28;20238;-78
2023/05/03 04:28:25;;;;;;;2.20;1.13;;;;;;;10.72;55.73;94963.97;5058314;28;20223;-78
2023/05/03 04:30:52;;;;;;;1.40;0.90;;;;;;;10.75;55.89;94968.75;5060611;28;20285;-76
2023/05/03 04:33:20;;;;;;;4.57;1.30;;;;;;;10.72;55.97;94974.81;5056757;28;20300;-78
2023/05/03 04:35:50;;;;;;;1.45;1.23;;;;;;;10.66;55.95;94983.09;5053146;28;20294;-78
2023/05/03 04:38:17;;;;;;;1.98;1.33;;;;;;;10.62;56.43;94992.19;5055987;28;20231;-79
2023/05/03 04:40:44;;;;;;;4.82;1.50;;;;;;;10.55;56.32;94987.25;5046800;28;20318;-77
2023/05/03 04:43:11;;;;;;;5.07;1.40;;;;;;;10.59;56.54;94993.63;5057453;28;20206;-77
2023/05/03 04:45:38;;;;;;;3.45;1.63;;;;;;;10.57;56.82;94985.00;5054114;28;20230;-78
2023/05/03 04:48:05;;;;;;;1.50;1.17;;;;;;;10.59;56.73;94999.03;5049531;28;20205;-77
2023/05/03 04:50:34;;;;;;;2.53;1.65;;;;;;;10.60;56.96;95000.63;5049182;28;20223;-79
2023/05/03 04:53:01;;;;;;;3.30;1.95;;;;;;;10.56;57.04;95015.91;5046823;28;20812;-77
2023/05/03 04:55:28;;;;;;;2.75;2.05;;;;;;;10.54;57.61;95006.50;5053774;28;20203;-76
2023/05/03 04:57:57;;;;;;;6.97;1.65;;;;;;;10.55;57.25;95008.09;5054550;28;20784;-76
2023/05/03 05:00:27;;;;;;;4.28;2.08;;;;;;;10.40;58.63;95020.19;5052018;28;20207;-77
2023/05/03 05:02:53;;;;;;;4.22;1.95;;;;;;;10.30;60.29;95023.22;5053789;28;20239;-76
2023/05/03 05:05:20;;;;;;;2.20;1.38;;;;;;;10.17;60.84;95032.22;5046824;28;20281;-76
2023/05/03 05:07:48;;;;;;;5.13;2.65;;;;;;;10.06;63.29;95045.25;5060511;28;20214;-79
2023/05/03 05:10:15;;;;;;;4.50;2.35;;;;;;;9.93;63.95;95046.97;5044337;28;20256;-77
2023/05/03 05:12:42;;;;;;;1.95;1.52;;;;;;;9.82;64.69;95029.44;5057558;28;20288;-78
2023/05/03 05:15:10;;;;;;;2.22;1.83;;;;;;;9.86;65.01;95035.78;5044147;28;20199;-77
2023/05/03 05:17:36;;;;;;;6.85;2.50;;;;;;;9.97;64.58;95042.53;5056570;28;20204;-77
2023/05/03 05:20:06;;;;;;;1.20;1.08;;;;;;;9.91;64.21;95038.38;5044182;28;20271;-77
2023/05/03 05:22:33;;;;;;;2.75;1.98;;;;;;;9.94;64.86;95040.47;5057065;28;20210;-76
2023/05/03 05:25:02;;;;;;;5.70;1.88;;;;;;;9.97;64.66;95047.16;5062599;28;20736;-75
2023/05/03 05:27:29;;;;;;;7.30;3.58;;;;;;;10.01;63.37;95025.66;5063445;28;20253;-76
2023/05/03 05:29:56;;;;;;;4.63;3.38;;;;;;;10.14;63.56;95051.81;5058081;28;20204;-79
2023/05/03 05:32:23;;;;;;;9.45;3.63;;;;;;;10.22;63.19;95048.38;5056736;28;20208;-75
2023/05/03 05:34:53;;;;;;;3.53;2.75;;;;;;;10.21;61.81;95041.38;5061511;28;20199;-75
2023/05/03 05:37:21;;;;;;;2.63;1.60;;;;;;;10.33;62.13;95049.66;5063294;28;20735;-77
2023/05/03 05:39:47;;;;;;;2.75;1.70;;;;;;;10.35;61.92;95052.06;5050093;28;20286;-76
2023/05/03 05:42:16;;;;;;;1.65;1.23;;;;;;;10.46;61.82;95037.91;5063547;28;20203;-77
2023/05/03 05:44:42;;;;;;;5.18;2.28;;;;;;;10.51;62.24;95035.06;5059503;28;20602;-76
2023/05/03 05:47:10;;;;;;;3.17;2.03;;;;;;;10.58;61.79;95050.81;5047403;28;20315;-74
2023/05/03 05:49:36;;;;;;;3.88;2.00;;;;;;;10.58;61.71;95038.06;5059791;28;20543;-76
2023/05/03 05:52:03;;;;;;;3.40;1.85;;;;;;;10.56;62.73;95037.59;5049968;28;20199;-77
2023/05/03 05:54:33;;;;;;;4.15;1.40;;;;;;;10.32;62.19;95042.66;5060590;28;20206;-76
2023/05/03 05:57:00;;;;;;;3.40;2.22;;;;;;;10.38;61.82;95033.28;5055889;28;20264;-77
2023/05/03 05:59:30;;;;;;;1.75;1.58;;;;;;;10.46;62.66;95040.63;5053549;28;20349;-76
2023/05/03 06:01:58;;;;;;;2.13;1.65;;;;;;;10.36;61.84;95051.75;5048295;28;20724;-76
2023/05/03 06:04:25;;;;;;;2.17;1.55;;;;;;;10.41;62.11;95050.78;5061037;28;20222;-77
2023/05/03 06:06:53;;;;;;;1.77;1.23;;;;;;;10.34;62.19;95037.72;5055340;28;20211;-78
2023/05/03 06:09:20;;;;;;;2.58;1.73;;;;;;;10.32;61.25;95031.81;5056538;28;20549;-75
2023/05/03 06:11:46;;;;;;;1.88;1.23;;;;;;;10.29;61.94;95043.28;5054253;28;20264;-77
2023/05/03 06:14:14;;;;;;;1.85;1.58;;;;;;;10.30;63.66;95034.03;5045704;28;20196;-77
2023/05/03 06:16:42;;;;;;;2.58;1.80;;;;;;;10.32;63.69;95042.66;5047747;28;20207;-77
2023/05/03 06:19:09;;;;;;;2.40;1.23;;;;;;;10.27;61.92;95031.97;5047321;28;20203;-77
2023/05/03 06:21:35;;;;;;;3.55;2.10;;;;;;;10.33;63.25;95041.53;5047958;28;20562;-76
2023/05/03 06:24:02;;;;;;;2.45;1.60;;;;;;;10.40;62.60;95033.75;5047368;28;20204;-79
2023/05/03 06:26:29;;;;;;;3.45;1.42;;;;;;;10.52;62.32;95036.63;5052675;28;20404;-79
2023/05/03 06:28:56;;;;;;;5.22;1.75;;;;;;;10.52;62.35;95031.19;5047827;28;20693;-79
2023/05/03 06:31:22;;;;;;;3.10;1.80;;;;;;;10.53;63.26;95032.81;5046856;28;20212;-80
2023/05/03 06:33:50;;;;;;;7.00;1.90;;;;;;;10.54;63.36;95028.97;5038900;28;20208;-76
2023/05/03 06:36:17;;;;;;;2.08;1.35;;;;;;;10.69;62.96;95022.31;5046261;28;20253;-76
2023/05/03 06:38:44;;;;;;;1.85;1.40;;;;;;;10.72;62.88;95015.47;5046654;28;20203;-79
2023/05/03 06:41:11;;;;;;;2.10;1.70;;;;;;;10.92;62.47;95018.34;5046714;28;20686;-75
2023/05/03 06:43:37;;;;;;;2.22;1.77;;;;;;;10.87;61.47;94996.00;5044705;28;20277;-77
2023/05/03 06:46:04;;;;;;;3.10;1.33;;;;;;;10.92;61.36;95012.13;5043506;28;20238;-74
2023/05/03 06:48:31;;;;;;;4.22;2.28;;;;;;;10.86;61.31;95007.97;5044236;28;20207;-75
2023/05/03 06:50:59;;;;;;;4.53;2.63;;;;;;;10.88;61.88;95016.56;5056006;28;20199;-79
2023/05/03 06:53:27;;;;;;;2.63;1.42;;;;;;;10.84;62.54;95002.06;5043181;28;20257;-76
2023/05/03 06:55:54;;;;;;;5.22;2.08;;;;;;;10.91;62.46;94996.97;5055068;28;20199;-73
2023/05/03 06:58:21;;;;;;;17.42;7.22;;;;;;;11.08;63.33;94993.41;5048990;28;20202;-73
2023/05/03 07:00:52;;;;;;;4.85;2.20;;;;;;;11.15;61.63;94999.97;5044670;28;20196;-73
2023/05/03 07:03:18;;;;;;;7.50;2.33;;;;;;;11.20;61.21;94999.81;5043760;28;20239;-71
2023/05/03 07:05:46;;;;;;;4.60;1.25;;;;;;;11.01;61.15;94980.38;5042746;28;20231;-74
2023/05/03 07:08:14;;;;;;;3.33;1.48;;;;;;;11.20;61.02;94986.25;5043425;28;20254;-75
2023/05/03 07:10:41;;;;;;;3.33;1.67;;;;;;;11.06;61.50;94993.78;5044587;28;20215;-76
2023/05/03 07:13:08;;;;;;;0.88;0.85;;;;;;;11.25;62.01;94996.91;5058219;28;20211;-75
2023/05/03 07:15:34;;;;;;;1.83;1.50;;;;;;;11.04;61.59;94999.50;5045866;28;20203;-75
2023/05/03 07:18:01;;;;;;;5.63;1.63;;;;;;;11.00;61.69;94997.75;5047334;28;20208;-74
2023/05/03 07:20:28;;;;;;;2.83;1.55;;;;;;;11.28;61.53;94998.19;5046750;28;20211;-73
2023/05/03 07:22:56;;;;;;;3.00;1.40;;;;;;;11.36;61.31;94987.31;5046451;28;20207;-75
2023/05/03 07:25:24;;;;;;;5.25;1.50;;;;;;;11.36;61.36;94984.59;5046597;28;20242;-79
2023/05/03 07:27:51;;;;;;;4.20;1.70;;;;;;;11.41;61.81;94997.19;5046697;28;20238;-77
2023/05/03 07:30:18;;;;;;;2.63;1.52;;;;;;;11.27;61.88;94991.97;5041841;28;20212;-75
2023/05/03 07:32:45;;;;;;;3.85;1.73;;;;;;;11.14;62.07;94998.38;5044115;28;20216;-78
2023/05/03 07:35:12;;;;;;;9.27;2.45;;;;;;;11.27;62.24;95002.00;5046224;28;20258;-74
2023/05/03 07:37:38;;;;;;;3.13;1.90;;;;;;;11.24;62.18;94976.31;5059554;28;20195;-75
2023/05/03 07:40:06;;;;;;;2.10;1.50;;;;;;;11.17;62.69;94973.31;5041824;28;20211;-76
2023/05/03 07:42:35;;;;;;;3.55;1.75;;;;;;;11.21;62.41;94963.41;5044298;28;20230;-83
2023/05/03 07:45:02;;;;;;;2.58;1.40;;;;;;;11.20;62.75;94967.25;5058309;28;20234;-76
2023/05/03 07:47:29;;;;;;;4.00;2.13;;;;;;;11.02;63.62;94974.63;5045624;28;20210;-77
2023/05/03 07:49:55;;;;;;;2.97;1.73;;;;;;;11.39;62.95;94992.09;5044987;28;20211;-75
2023/05/03 07:52:22;;;;;;;5.88;1.80;;;;;;;11.62;62.39;94975.56;5045939;28;20212;-76
2023/05/03 07:54:49;;;;;;;1.30;1.17;;;;;;;11.49;62.66;94982.00;5045233;28;20249;-75
2023/05/03 07:57:16;;;;;;;2.20;1.52;;;;;;;11.52;62.83;94981.34;5032189;28;20203;-76
2023/05/03 07:59:44;;;;;;;1.88;1.48;;;;;;;11.55;63.00;94984.22;5045466;28;20253;-75
2023/05/03 08:02:11;;;;;;;1.65;1.30;;;;;;;11.64;62.82;94989.59;5058247;28;20908;-76
2023/05/03 08:04:37;;;;;;;2.60;1.65;;;;;;;12.17;61.56;94986.34;5045213;28;20681;-76
2023/05/03 08:07:04;;;;;;;3.28;2.00;;;;;;;12.19;61.59;95000.41;5058188;28;20207;-77
2023/05/03 08:09:31;;;;;;;2.90;1.83;;;;;;;11.96;62.04;94986.31;5044923;28;20218;-77
2023/05/03 08:11:58;;;;;;;3.67;1.55;;;;;;;12.22;61.88;94997.03;5042346;28;20242;-77
2023/05/03 08:14:26;;;;;;;4.78;2.75;;;;;;;12.43;61.92;94983.50;5045699;28;20207;-75
2023/05/03 08:16:54;;;;;;;5.18;2.90;;;;;;;12.90;60.42;94988.72;5057651;28;20207;-75
2023/05/03 08:19:21;;;;;;;3.80;2.25;;;;;;;13.14;58.98;94996.97;5045163;28;20208;-75
2023/05/03 08:21:48;;;;;;;8.18;2.53;;;;;;;12.74;59.81;94994.75;5045366;28;20199;-75
2023/05/03 08:24:15;;;;;;;4.22;2.65;;;;;;;12.91;60.14;94982.94;5059273;28;20227;-74
2023/05/03 08:26:42;;;;;;;2.85;2.13;;;;;;;13.26;59.21;94983.44;5045911;28;20258;-75
2023/05/03 08:29:09;;;;;;;3.92;2.97;;;;;;;13.84;58.23;94986.97;5046766;28;20448;-80
2023/05/03 08:31:36;;;;;;;4.15;1.85;;;;;;;13.89;57.56;94989.47;5057363;28;20218;-77
2023/05/03 08:34:05;;;;;;;6.55;3.72;;;;;;;14.51;56.22;94988.31;5045414;28;20207;-75
2023/05/03 08:36:32;;;;;;;6.88;4.25;;;;;;;14.38;57.34;94994.91;5045526;28;20199;-74
2023/05/03 08:38:59;;;;;;;5.20;3.42;;;;;;;14.21;56.93;94996.72;5045399;28;20239;-76
2023/05/03 08:41:29;;;;;;;7.57;4.20;;;;;;;14.61;56.10;94974.25;5045352;28;20211;-74
2023/05/03 08:43:58;;;;;;;4.53;3.20;;;;;;;14.24;56.64;94997.97;5049524;28;20211;-75
2023/05/03 08:46:25;;;;;;;6.97;2.83;;;;;;;14.68;56.81;94971.72;5043484;28;20289;-75
2023/05/03 08:48:53;;;;;;;5.18;2.75;;;;;;;14.88;55.80;94969.97;5059013;28;20657;-77
2023/05/03 08:51:23;;;;;;;3.25;2.10;;;;;;;14.64;55.70;94976.25;5049470;28;20215;-77
2023/05/03 08:53:54;;;;;;;4.88;1.80;;;;;;;14.52;56.18;94974.34;5062709;28;20208;-77
2023/05/03 08:56:29;;;;;;;6.00;2.70;;;;;;;14.05;58.01;94987.66;5049345;28;20686;-74
2023/05/03 08:58:56;;;;;;;5.35;2.78;;;;;;;14.27;57.66;94982.88;5039714;28;20200;-75
2023/05/03 09:01:23;;;;;;;6.50;2.40;;;;;;;14.32;57.37;94982.66;5061876;28;20203;-75
2023/05/03 09:03:51;;;;;;;2.10;1.90;;;;;;;14.21;57.56;95013.06;5055156;28;20751;-75
2023/05/03 09:06:25;;;;;;;4.63;2.47;;;;;;;14.03;58.05;95000.81;5055622;28;20322;-75
2023/05/03 09:08:52;;;;;;;3.85;2.60;;;;;;;14.84;56.40;94993.59;5059514;28;20207;-74
2023/05/03 09:11:23;;;;;;;2.88;2.33;;;;;;;15.88;54.09;94984.34;5048897;28;20235;-75
2023/05/03 09:13:51;;;;;;;6.70;2.78;;;;;;;15.54;54.68;94986.59;5048697;28;20674;-75
2023/05/03 09:16:26;;;;;;;5.75;3.08;;;;;;;16.51;53.20;94979.66;5049240;28;20220;-75
2023/05/03 09:19:00;;;;;;;4.10;2.72;;;;;;;16.31;51.98;94972.53;5048525;28;20700;-77
2023/05/03 09:21:30;;;;;;;4.45;2.97;;;;;;;15.39;54.60;94968.25;5049184;28;20650;-75
2023/05/03 09:23:57;;;;;;;6.45;2.70;;;;;;;15.31;55.15;94971.91;5060770;28;20219;-77
2023/05/03 09:26:30;;;;;;;4.20;3.20;;;;;;;15.51;55.13;94964.66;5047929;28;20241;-76
2023/05/03 09:28:59;;;;;;;6.07;3.40;;;;;;;15.66;54.85;94963.13;5061282;28;20221;-75
2023/05/03 09:31:26;;;;;;;5.05;3.17;;;;;;;15.73;54.47;94960.56;5035107;28;20211;-76
2023/05/03 09:33:54;;;;;;;5.30;3.50;;;;;;;15.40;54.70;94964.38;5049021;28;20216;-75
2023/05/03 09:36:21;;;;;;;5.63;3.30;;;;;;;15.56;54.78;94946.13;5048559;28;20212;-74
2023/05/03 09:38:51;;;;;;;5.25;3.30;;;;;;;15.97;54.29;94944.81;5049595;28;20689;-75
2023/05/03 09:41:27;;;;;;;6.03;3.80;;;;;;;16.11;54.22;94930.69;5060364;28;20211;-74
2023/05/03 09:44:01;;;;;;;3.28;2.38;;;;;;;16.56;52.44;94932.06;5051293;28;20264;-74
2023/05/03 09:46:33;;;;;;;5.97;2.97;;;;;;;17.28;51.53;94924.97;5057505;28;20732;-77
2023/05/03 09:49:00;;;;;;;3.17;2.85;;;;;;;16.91;52.05;94921.91;5053019;28;20229;-74
2023/05/03 09:51:28;;;;;;;4.20;3.15;;;;;;;16.94;51.57;94923.94;5055741;28;20211;-75
2023/05/03 09:54:05;;;;;;;5.28;3.10;;;;;;;16.99;51.13;94901.72;5051937;28;20206;-76
2023/05/03 09:56:32;;;;;;;4.32;3.35;;;;;;;16.74;51.93;94911.38;5048212;28;20609;-77
2023/05/03 09:58:59;;;;;;;5.25;2.85;;;;;;;16.85;52.29;94912.38;5062487;28;20187;-76
2023/05/03 10:01:26;;;;;;;8.52;3.30;;;;;;;17.44;51.69;94905.69;5054359;28;20204;-75
2023/05/03 10:04:07;;;;;;;6.78;3.53;;;;;;;18.13;49.77;94909.22;5047997;28;20239;-76
2023/05/03 10:06:38;;;;;;;3.70;2.90;;;;;;;18.01;48.65;94906.69;5048024;28;20254;-76
2023/05/03 10:09:15;;;;;;;4.53;3.20;;;;;;;16.97;50.90;94914.97;5047705;28;20273;-74
2023/05/03 10:11:48;;;;;;;4.47;2.97;;;;;;;17.83;50.60;94906.38;5048418;28;20199;-74
2023/05/03 10:14:16;;;;;;;6.97;3.40;;;;;;;17.78;50.52;94909.44;5047976;28;20215;-75
2023/05/03 10:16:53;;;;;;;5.18;3.28;;;;;;;17.31;51.39;94907.03;5047984;28;20223;-74
2023/05/03 10:19:32;;;;;;;4.88;3.22;;;;;;;16.93;51.87;94897.72;5061033;28;20195;-74
2023/05/03 10:22:04;;;;;;;4.32;2.72;;;;;;;16.60;52.88;94894.66;5047771;28;20389;-75
2023/05/03 10:24:33;;;;;;;3.60;3.05;;;;;;;16.71;53.07;94901.16;5047322;28;20900;-74
2023/05/03 10:27:06;;;;;;;3.70;3.00;;;;;;;16.45;53.94;94890.03;5057694;28;20345;-76
2023/05/03 10:29:50;;;;;;;5.07;2.92;;;;;;;16.78;53.53;94873.94;5049372;28;20661;-75
2023/05/03 10:32:41;;;;;;;5.60;3.20;;;;;;;17.15;52.65;94876.22;5048293;28;20226;-76
2023/05/03 10:35:10;;;;;;;3.20;2.80;;;;;;;17.20;51.99;94876.72;5056932;28;20207;-76
2023/05/03 10:37:38;;;;;;;3.30;3.00;;;;;;;16.70;53.12;94877.69;5046769;28;20286;-75
2023/05/03 10:40:14;;;;;;;4.65;3.03;;;;;;;16.71;53.53;94871.06;5047082;28;20208;-75
2023/05/03 10:42:51;;;;;;;6.22;2.90;;;;;;;17.20;52.67;94859.50;5046830;28;20237;-75
2023/05/03 10:45:25;;;;;;;5.38;2.85;;;;;;;17.35;52.53;94877.75;5045926;28;20290;-76
2023/05/03 10:48:19;;;;;;;3.88;2.85;;;;;;;17.15;52.40;94870.72;5039051;28;20953;-75
2023/05/03 10:50:47;;;;;;;5.22;3.38;;;;;;;17.40;52.93;94864.53;5059812;28;20657;-76
2023/05/03 10:53:42;;;;;;;3.53;2.63;;;;;;;17.91;50.77;94857.94;5046671;28;20635;-76
2023/05/03 10:56:12;;;;;;;3.58;2.95;;;;;;;17.97;50.47;94867.44;5012186;28;20212;-73
2023/05/03 10:58:42;;;;;;;4.05;2.55;;;;;;;17.73;51.06;94861.22;5046283;28;20195;-75
2023/05/03 11:01:10;;;;;;;5.70;2.97;;;;;;;17.65;51.93;94870.47;5047163;28;20609;-74
2023/05/03 11:03:45;;;;;;;4.20;3.15;;;;;;;18.16;50.85;94870.09;5045146;28;20266;-75
2023/05/03 11:06:27;;;;;;;3.92;2.50;;;;;;;17.99;49.83;94859.66;5042136;28;20238;-74
2023/05/03 11:08:55;;;;;;;3.65;2.67;;;;;;;17.94;49.78;94868.19;5042539;28;20384;-75
2023/05/03 11:11:23;;;;;;;3.50;2.45;;;;;;;17.83;50.33;94859.78;5045105;28;20287;-76
2023/05/03 11:13:51;;;;;;;4.45;2.38;;;;;;;18.08;49.84;94846.47;5045645;28;20686;-76
2023/05/03 11:16:18;;;;;;;3.85;2.75;;;;;;;17.64;51.11;94849.69;5043351;28;20266;-76
2023/05/03 11:18:45;;;;;;;4.47;3.03;;;;;;;17.40;51.21;94850.84;5040712;28;20305;-75
2023/05/03 11:21:12;;;;;;;4.35;2.65;;;;;;;17.62;51.04;94856.69;5047812;28;20199;-75
2023/05/03 11:23:40;;;;;;;6.28;2.75;;;;;;;17.32;51.69;94848.38;5056262;28;20237;-75
2023/05/03 11:26:13;;;;;;;3.63;2.67;;;;;;;17.45;51.80;94836.06;5048707;28;20387;-74
2023/05/03 11:28:55;;;;;;;6.30;2.50;;;;;;;17.48;51.78;94829.88;5046135;28;20208;-74
2023/05/03 11:31:23;;;;;;;6.00;3.03;;;;;;;17.85;51.38;94837.50;5042112;28;20196;-75
2023/05/03 11:33:53;;;;;;;4.85;2.75;;;;;;;18.00;50.80;94850.28;5045402;28;20510;-74
2023/05/03 11:36:20;;;;;;;4.10;3.10;;;;;;;18.06;51.33;94843.28;5045783;28;20226;-76
2023/05/03 11:38:50;;;;;;;3.83;2.58;;;;;;;18.25;50.94;94845.13;5044832;28;20203;-74
2023/05/03 11:41:23;;;;;;;5.95;2.67;;;;;;;18.75;49.93;94830.13;5044977;28;20188;-76